sensor_id;sensor_type;location;lat;lon;timestamp;temperature;humidity
47022;DHT22;32779;52.264;6.154;2023-04-09T00:02:15;9.20;99.90
47022;DHT22;32779;52.264;6.154;2023-04-09T00:04:40;9.10;99.90
47022;DHT22;32779;52.264;6.154;2023-04-09T00:07:06;9.10;99.90
47022;DHT22;32779;52.264;6.154;2023-04-09T00:09:32;9.10;99.90
47022;DHT22;32779;52.264;6.154;2023-04-09T00:11:57;9.00;99.90
47022;DHT22;32779;52.264;6.154;2023-04-09T00:14:23;9.00;99.90
47022;DHT22;32779;52.264;6.154;2023-04-09T00:16:49;9.00;99.90
47022;DHT22;32779;52.264;6.154;2023-04-09T00:19:14;9.10;99.90
47022;DHT22;32779;52.264;6.154;2023-04-09T00:21:40;9.00;99.90
47022;DHT22;32779;52.264;6.154;2023-04-09T00:24:06;9.00;99.90
47022;DHT22;32779;52.264;6.154;2023-04-09T00:26:32;9.10;99.90
47022;DHT22;32779;52.264;6.154;2023-04-09T00:28:57;9.10;99.90
47022;DHT22;32779;52.264;6.154;2023-04-09T00:31:23;9.10;99.90
47022;DHT22;32779;52.264;6.154;2023-04-09T00:33:48;9.10;99.90
47022;DHT22;32779;52.264;6.154;2023-04-09T00:36:14;9.10;99.90
47022;DHT22;32779;52.264;6.154;2023-04-09T00:38:40;9.10;99.90
47022;DHT22;32779;52.264;6.154;2023-04-09T00:41:06;9.10;99.90
47022;DHT22;32779;52.264;6.154;2023-04-09T00:43:32;9.10;99.90
47022;DHT22;32779;52.264;6.154;2023-04-09T00:45:58;9.10;99.90
47022;DHT22;32779;52.264;6.154;2023-04-09T00:48:25;9.00;99.90
47022;DHT22;32779;52.264;6.154;2023-04-09T00:50:51;9.10;99.90
47022;DHT22;32779;52.264;6.154;2023-04-09T00:53:17;9.00;99.90
47022;DHT22;32779;52.264;6.154;2023-04-09T00:55:42;9.00;99.90
47022;DHT22;32779;52.264;6.154;2023-04-09T00:58:08;9.00;99.90
47022;DHT22;32779;52.264;6.154;2023-04-09T01:00:34;8.90;99.90
47022;DHT22;32779;52.264;6.154;2023-04-09T01:03:00;9.00;99.90
47022;DHT22;32779;52.264;6.154;2023-04-09T01:05:27;9.00;99.90
47022;DHT22;32779;52.264;6.154;2023-04-09T01:08:26;9.00;99.90
47022;DHT22;32779;52.264;6.154;2023-04-09T01:11:09;8.90;99.90
47022;DHT22;32779;52.264;6.154;2023-04-09T01:14:00;8.90;99.90
47022;DHT22;32779;52.264;6.154;2023-04-09T01:16:31;8.90;99.90
47022;DHT22;32779;52.264;6.154;2023-04-09T01:21:45;8.90;99.90
47022;DHT22;32779;52.264;6.154;2023-04-09T01:27:05;8.90;99.90
47022;DHT22;32779;52.264;6.154;2023-04-09T01:29:38;9.00;99.90
47022;DHT22;32779;52.264;6.154;2023-04-09T01:32:07;9.00;99.90
47022;DHT22;32779;52.264;6.154;2023-04-09T01:34:34;8.90;99.90
47022;DHT22;32779;52.264;6.154;2023-04-09T01:37:01;8.90;99.90
47022;DHT22;32779;52.264;6.154;2023-04-09T01:39:28;8.90;99.90
47022;DHT22;32779;52.264;6.154;2023-04-09T01:41:54;8.90;99.90
47022;DHT22;32779;52.264;6.154;2023-04-09T01:44:20;8.90;99.90
47022;DHT22;32779;52.264;6.154;2023-04-09T01:46:48;9.00;99.90
47022;DHT22;32779;52.264;6.154;2023-04-09T01:49:15;9.00;99.90
47022;DHT22;32779;52.264;6.154;2023-04-09T01:51:41;8.90;99.90
47022;DHT22;32779;52.264;6.154;2023-04-09T01:54:07;9.00;99.90
47022;DHT22;32779;52.264;6.154;2023-04-09T01:56:44;9.00;99.90
47022;DHT22;32779;52.264;6.154;2023-04-09T01:59:10;9.00;99.90
47022;DHT22;32779;52.264;6.154;2023-04-09T02:02:02;9.00;99.90
47022;DHT22;32779;52.264;6.154;2023-04-09T02:04:33;9.00;99.90
47022;DHT22;32779;52.264;6.154;2023-04-09T02:09:52;9.00;99.90
47022;DHT22;32779;52.264;6.154;2023-04-09T02:12:19;9.00;99.90
47022;DHT22;32779;52.264;6.154;2023-04-09T02:14:48;9.00;99.90
47022;DHT22;32779;52.264;6.154;2023-04-09T02:17:15;9.00;99.90
47022;DHT22;32779;52.264;6.154;2023-04-09T02:19:43;9.00;99.90
47022;DHT22;32779;52.264;6.154;2023-04-09T02:22:12;9.00;99.90
47022;DHT22;32779;52.264;6.154;2023-04-09T02:24:38;9.00;99.90
47022;DHT22;32779;52.264;6.154;2023-04-09T02:27:07;9.00;99.90
47022;DHT22;32779;52.264;6.154;2023-04-09T02:29:33;9.00;99.90
47022;DHT22;32779;52.264;6.154;2023-04-09T02:31:59;9.00;99.90
47022;DHT22;32779;52.264;6.154;2023-04-09T02:34:24;8.90;99.90
47022;DHT22;32779;52.264;6.154;2023-04-09T02:36:50;8.90;99.90
47022;DHT22;32779;52.264;6.154;2023-04-09T02:39:16;8.90;99.90
47022;DHT22;32779;52.264;6.154;2023-04-09T02:41:41;8.80;99.90
47022;DHT22;32779;52.264;6.154;2023-04-09T02:44:07;8.80;99.90
47022;DHT22;32779;52.264;6.154;2023-04-09T02:46:32;8.80;99.90
47022;DHT22;32779;52.264;6.154;2023-04-09T02:48:58;8.80;99.90
47022;DHT22;32779;52.264;6.154;2023-04-09T02:51:24;8.80;99.90
47022;DHT22;32779;52.264;6.154;2023-04-09T02:53:49;8.80;99.90
47022;DHT22;32779;52.264;6.154;2023-04-09T02:56:15;8.80;99.90
47022;DHT22;32779;52.264;6.154;2023-04-09T02:58:40;8.80;99.90
47022;DHT22;32779;52.264;6.154;2023-04-09T03:01:06;8.70;99.90
47022;DHT22;32779;52.264;6.154;2023-04-09T03:03:31;8.70;99.90
47022;DHT22;32779;52.264;6.154;2023-04-09T03:05:57;8.70;99.90
47022;DHT22;32779;52.264;6.154;2023-04-09T03:08:23;8.70;99.90
47022;DHT22;32779;52.264;6.154;2023-04-09T03:10:48;8.70;99.90
47022;DHT22;32779;52.264;6.154;2023-04-09T03:13:14;8.60;99.90
47022;DHT22;32779;52.264;6.154;2023-04-09T03:15:39;8.60;99.90
47022;DHT22;32779;52.264;6.154;2023-04-09T03:18:05;8.60;99.90
47022;DHT22;32779;52.264;6.154;2023-04-09T03:20:31;8.60;99.90
47022;DHT22;32779;52.264;6.154;2023-04-09T03:22:56;8.60;99.90
47022;DHT22;32779;52.264;6.154;2023-04-09T03:25:22;8.60;99.90
47022;DHT22;32779;52.264;6.154;2023-04-09T03:27:47;8.60;99.90
47022;DHT22;32779;52.264;6.154;2023-04-09T03:30:13;8.60;99.90
47022;DHT22;32779;52.264;6.154;2023-04-09T03:32:39;8.70;99.90
47022;DHT22;32779;52.264;6.154;2023-04-09T03:35:04;8.70;99.90
47022;DHT22;32779;52.264;6.154;2023-04-09T03:37:30;8.70;99.90
47022;DHT22;32779;52.264;6.154;2023-04-09T03:39:56;8.70;99.90
47022;DHT22;32779;52.264;6.154;2023-04-09T03:42:21;8.70;99.90
47022;DHT22;32779;52.264;6.154;2023-04-09T03:44:47;8.70;99.90
47022;DHT22;32779;52.264;6.154;2023-04-09T03:47:12;8.60;99.90
47022;DHT22;32779;52.264;6.154;2023-04-09T03:49:38;8.60;99.90
47022;DHT22;32779;52.264;6.154;2023-04-09T03:52:05;8.60;99.90
47022;DHT22;32779;52.264;6.154;2023-04-09T03:54:30;8.60;99.90
47022;DHT22;32779;52.264;6.154;2023-04-09T03:56:56;8.60;99.90
47022;DHT22;32779;52.264;6.154;2023-04-09T03:59:23;8.60;99.90
47022;DHT22;32779;52.264;6.154;2023-04-09T04:01:48;8.70;99.90
47022;DHT22;32779;52.264;6.154;2023-04-09T04:04:14;8.60;99.90
47022;DHT22;32779;52.264;6.154;2023-04-09T04:06:40;8.60;99.90
47022;DHT22;32779;52.264;6.154;2023-04-09T04:09:05;8.60;99.90
47022;DHT22;32779;52.264;6.154;2023-04-09T04:11:31;8.60;99.90
47022;DHT22;32779;52.264;6.154;2023-04-09T04:13:57;8.70;99.90
47022;DHT22;32779;52.264;6.154;2023-04-09T04:16:22;8.60;99.90
47022;DHT22;32779;52.264;6.154;2023-04-09T04:18:48;8.60;99.90
47022;DHT22;32779;52.264;6.154;2023-04-09T04:21:14;8.60;99.90
47022;DHT22;32779;52.264;6.154;2023-04-09T04:23:40;8.60;99.90
47022;DHT22;32779;52.264;6.154;2023-04-09T04:26:10;8.70;99.90
47022;DHT22;32779;52.264;6.154;2023-04-09T04:28:36;8.70;99.90
47022;DHT22;32779;52.264;6.154;2023-04-09T04:31:02;8.70;99.90
47022;DHT22;32779;52.264;6.154;2023-04-09T04:33:31;8.70;99.90
47022;DHT22;32779;52.264;6.154;2023-04-09T04:36:07;8.70;99.90
47022;DHT22;32779;52.264;6.154;2023-04-09T04:38:33;8.60;99.90
47022;DHT22;32779;52.264;6.154;2023-04-09T04:40:59;8.60;99.90
47022;DHT22;32779;52.264;6.154;2023-04-09T04:43:25;8.60;99.90
47022;DHT22;32779;52.264;6.154;2023-04-09T04:45:50;8.60;99.90
47022;DHT22;32779;52.264;6.154;2023-04-09T04:48:16;8.60;99.90
47022;DHT22;32779;52.264;6.154;2023-04-09T04:50:42;8.70;99.90
47022;DHT22;32779;52.264;6.154;2023-04-09T04:53:07;8.70;99.90
47022;DHT22;32779;52.264;6.154;2023-04-09T04:55:36;8.70;99.90
47022;DHT22;32779;52.264;6.154;2023-04-09T04:58:04;8.70;99.90
47022;DHT22;32779;52.264;6.154;2023-04-09T05:00:29;8.70;99.90
47022;DHT22;32779;52.264;6.154;2023-04-09T05:02:55;8.70;99.90
47022;DHT22;32779;52.264;6.154;2023-04-09T05:05:21;8.70;99.90
47022;DHT22;32779;52.264;6.154;2023-04-09T05:07:46;8.70;99.90
47022;DHT22;32779;52.264;6.154;2023-04-09T05:10:12;8.70;99.90
47022;DHT22;32779;52.264;6.154;2023-04-09T05:12:37;8.70;99.90
47022;DHT22;32779;52.264;6.154;2023-04-09T05:15:03;8.70;99.90
47022;DHT22;32779;52.264;6.154;2023-04-09T05:17:29;8.70;99.90
47022;DHT22;32779;52.264;6.154;2023-04-09T05:19:55;8.60;99.90
47022;DHT22;32779;52.264;6.154;2023-04-09T05:22:22;8.70;99.90
47022;DHT22;32779;52.264;6.154;2023-04-09T05:24:48;8.60;99.90
47022;DHT22;32779;52.264;6.154;2023-04-09T05:27:13;8.60;99.90
47022;DHT22;32779;52.264;6.154;2023-04-09T05:29:39;8.50;99.90
47022;DHT22;32779;52.264;6.154;2023-04-09T05:32:04;8.50;99.90
47022;DHT22;32779;52.264;6.154;2023-04-09T05:34:31;8.50;99.90
47022;DHT22;32779;52.264;6.154;2023-04-09T05:36:56;8.50;99.90
47022;DHT22;32779;52.264;6.154;2023-04-09T05:39:22;8.40;99.90
47022;DHT22;32779;52.264;6.154;2023-04-09T05:41:48;8.40;99.90
47022;DHT22;32779;52.264;6.154;2023-04-09T05:44:13;8.40;99.90
47022;DHT22;32779;52.264;6.154;2023-04-09T05:46:39;8.40;99.90
47022;DHT22;32779;52.264;6.154;2023-04-09T05:49:05;8.40;99.90
47022;DHT22;32779;52.264;6.154;2023-04-09T05:51:32;8.30;99.90
47022;DHT22;32779;52.264;6.154;2023-04-09T05:53:57;8.30;99.90
47022;DHT22;32779;52.264;6.154;2023-04-09T05:56:23;8.40;99.90
47022;DHT22;32779;52.264;6.154;2023-04-09T05:58:50;8.50;99.90
47022;DHT22;32779;52.264;6.154;2023-04-09T06:01:16;8.50;99.90
47022;DHT22;32779;52.264;6.154;2023-04-09T06:03:42;8.60;99.90
47022;DHT22;32779;52.264;6.154;2023-04-09T06:06:08;8.60;99.90
47022;DHT22;32779;52.264;6.154;2023-04-09T06:08:33;8.60;99.90
47022;DHT22;32779;52.264;6.154;2023-04-09T06:10:59;8.70;99.90
47022;DHT22;32779;52.264;6.154;2023-04-09T06:13:25;8.80;99.90
47022;DHT22;32779;52.264;6.154;2023-04-09T06:15:51;8.80;99.90
47022;DHT22;32779;52.264;6.154;2023-04-09T06:18:16;8.90;99.90
47022;DHT22;32779;52.264;6.154;2023-04-09T06:20:42;9.00;99.90
47022;DHT22;32779;52.264;6.154;2023-04-09T06:23:08;9.00;99.90
47022;DHT22;32779;52.264;6.154;2023-04-09T06:25:34;9.10;99.90
47022;DHT22;32779;52.264;6.154;2023-04-09T06:28:00;9.10;99.90
47022;DHT22;32779;52.264;6.154;2023-04-09T06:30:27;9.10;99.90
47022;DHT22;32779;52.264;6.154;2023-04-09T06:32:53;9.20;99.90
47022;DHT22;32779;52.264;6.154;2023-04-09T06:35:19;9.30;99.90
47022;DHT22;32779;52.264;6.154;2023-04-09T06:37:45;9.30;99.90
47022;DHT22;32779;52.264;6.154;2023-04-09T06:40:11;9.40;99.90
47022;DHT22;32779;52.264;6.154;2023-04-09T06:42:36;9.40;99.90
47022;DHT22;32779;52.264;6.154;2023-04-09T06:45:03;9.40;99.90
47022;DHT22;32779;52.264;6.154;2023-04-09T06:47:33;9.50;99.90
47022;DHT22;32779;52.264;6.154;2023-04-09T06:49:59;9.60;99.90
47022;DHT22;32779;52.264;6.154;2023-04-09T06:52:25;9.60;99.90
47022;DHT22;32779;52.264;6.154;2023-04-09T06:54:50;9.70;99.90
47022;DHT22;32779;52.264;6.154;2023-04-09T06:57:16;9.80;99.90
47022;DHT22;32779;52.264;6.154;2023-04-09T06:59:41;9.90;99.90
47022;DHT22;32779;52.264;6.154;2023-04-09T07:02:08;10.00;99.90
47022;DHT22;32779;52.264;6.154;2023-04-09T07:04:33;10.00;99.90
47022;DHT22;32779;52.264;6.154;2023-04-09T07:06:59;10.00;99.90
47022;DHT22;32779;52.264;6.154;2023-04-09T07:09:25;10.10;99.90
47022;DHT22;32779;52.264;6.154;2023-04-09T07:11:50;10.10;99.90
47022;DHT22;32779;52.264;6.154;2023-04-09T07:14:16;10.20;99.90
47022;DHT22;32779;52.264;6.154;2023-04-09T07:16:41;10.30;99.90
47022;DHT22;32779;52.264;6.154;2023-04-09T07:19:08;10.40;99.90
47022;DHT22;32779;52.264;6.154;2023-04-09T07:21:34;10.60;99.90
47022;DHT22;32779;52.264;6.154;2023-04-09T07:23:59;10.70;99.90
47022;DHT22;32779;52.264;6.154;2023-04-09T07:26:25;10.80;99.90
47022;DHT22;32779;52.264;6.154;2023-04-09T07:28:51;10.80;99.90
47022;DHT22;32779;52.264;6.154;2023-04-09T07:31:16;11.00;99.90
47022;DHT22;32779;52.264;6.154;2023-04-09T07:33:42;11.10;99.90
47022;DHT22;32779;52.264;6.154;2023-04-09T07:36:07;11.00;99.90
47022;DHT22;32779;52.264;6.154;2023-04-09T07:38:33;11.10;99.90
47022;DHT22;32779;52.264;6.154;2023-04-09T07:40:59;11.10;99.90
47022;DHT22;32779;52.264;6.154;2023-04-09T07:43:25;11.10;99.90
47022;DHT22;32779;52.264;6.154;2023-04-09T07:45:51;11.20;99.90
47022;DHT22;32779;52.264;6.154;2023-04-09T07:48:16;11.20;99.90
47022;DHT22;32779;52.264;6.154;2023-04-09T07:50:42;11.30;99.90
47022;DHT22;32779;52.264;6.154;2023-04-09T07:53:10;11.50;99.90
47022;DHT22;32779;52.264;6.154;2023-04-09T07:55:36;11.60;99.90
47022;DHT22;32779;52.264;6.154;2023-04-09T07:58:02;11.70;99.90
47022;DHT22;32779;52.264;6.154;2023-04-09T08:00:29;11.80;99.90
47022;DHT22;32779;52.264;6.154;2023-04-09T08:02:54;11.90;99.90
47022;DHT22;32779;52.264;6.154;2023-04-09T08:05:21;12.00;99.90
47022;DHT22;32779;52.264;6.154;2023-04-09T08:07:49;12.10;99.90
47022;DHT22;32779;52.264;6.154;2023-04-09T08:10:15;12.10;99.90
47022;DHT22;32779;52.264;6.154;2023-04-09T08:12:41;12.20;99.90
47022;DHT22;32779;52.264;6.154;2023-04-09T08:15:07;12.30;99.90
47022;DHT22;32779;52.264;6.154;2023-04-09T08:17:32;12.30;99.90
47022;DHT22;32779;52.264;6.154;2023-04-09T08:19:58;12.30;99.90
47022;DHT22;32779;52.264;6.154;2023-04-09T08:22:24;12.30;99.90
47022;DHT22;32779;52.264;6.154;2023-04-09T08:24:53;12.10;99.90
47022;DHT22;32779;52.264;6.154;2023-04-09T08:27:19;12.20;99.90
47022;DHT22;32779;52.264;6.154;2023-04-09T08:29:46;12.30;99.90
47022;DHT22;32779;52.264;6.154;2023-04-09T08:32:11;12.50;99.90
47022;DHT22;32779;52.264;6.154;2023-04-09T08:34:37;12.60;99.90
47022;DHT22;32779;52.264;6.154;2023-04-09T08:37:02;12.60;99.90
47022;DHT22;32779;52.264;6.154;2023-04-09T08:39:28;12.70;99.90
47022;DHT22;32779;52.264;6.154;2023-04-09T08:41:57;12.80;99.90
47022;DHT22;32779;52.264;6.154;2023-04-09T08:44:27;12.80;99.90
47022;DHT22;32779;52.264;6.154;2023-04-09T08:46:53;12.70;99.90
47022;DHT22;32779;52.264;6.154;2023-04-09T08:49:20;12.70;99.90
47022;DHT22;32779;52.264;6.154;2023-04-09T08:51:46;12.70;99.90
47022;DHT22;32779;52.264;6.154;2023-04-09T08:54:14;12.60;99.90
47022;DHT22;32779;52.264;6.154;2023-04-09T08:56:41;12.70;99.90
47022;DHT22;32779;52.264;6.154;2023-04-09T08:59:08;12.80;99.90
47022;DHT22;32779;52.264;6.154;2023-04-09T09:01:34;12.80;99.90
47022;DHT22;32779;52.264;6.154;2023-04-09T09:04:07;12.80;99.90
47022;DHT22;32779;52.264;6.154;2023-04-09T09:06:36;12.80;99.90
47022;DHT22;32779;52.264;6.154;2023-04-09T09:11:42;12.90;99.90
47022;DHT22;32779;52.264;6.154;2023-04-09T09:14:17;12.80;99.90
47022;DHT22;32779;52.264;6.154;2023-04-09T09:17:03;12.80;99.90
47022;DHT22;32779;52.264;6.154;2023-04-09T09:19:30;12.80;99.90
47022;DHT22;32779;52.264;6.154;2023-04-09T09:22:05;12.80;99.90
47022;DHT22;32779;52.264;6.154;2023-04-09T09:24:32;12.80;99.90
47022;DHT22;32779;52.264;6.154;2023-04-09T09:26:59;12.90;99.90
47022;DHT22;32779;52.264;6.154;2023-04-09T09:29:25;13.00;99.90
47022;DHT22;32779;52.264;6.154;2023-04-09T09:31:52;13.10;99.90
47022;DHT22;32779;52.264;6.154;2023-04-09T09:34:20;13.20;99.90
47022;DHT22;32779;52.264;6.154;2023-04-09T09:36:46;13.10;99.90
47022;DHT22;32779;52.264;6.154;2023-04-09T09:39:13;13.10;99.90
47022;DHT22;32779;52.264;6.154;2023-04-09T09:41:39;13.20;99.90
47022;DHT22;32779;52.264;6.154;2023-04-09T09:44:07;13.20;99.90
47022;DHT22;32779;52.264;6.154;2023-04-09T09:46:38;13.30;99.90
47022;DHT22;32779;52.264;6.154;2023-04-09T09:49:05;13.30;99.90
47022;DHT22;32779;52.264;6.154;2023-04-09T09:51:32;13.30;99.90
47022;DHT22;32779;52.264;6.154;2023-04-09T09:53:58;13.30;99.90
47022;DHT22;32779;52.264;6.154;2023-04-09T09:56:31;13.40;99.90
47022;DHT22;32779;52.264;6.154;2023-04-09T10:01:43;13.50;99.90
47022;DHT22;32779;52.264;6.154;2023-04-09T10:04:13;13.60;99.90
47022;DHT22;32779;52.264;6.154;2023-04-09T10:06:45;13.70;99.90
47022;DHT22;32779;52.264;6.154;2023-04-09T10:09:11;13.60;99.90
47022;DHT22;32779;52.264;6.154;2023-04-09T10:11:37;13.60;99.90
47022;DHT22;32779;52.264;6.154;2023-04-09T10:14:07;13.50;99.90
47022;DHT22;32779;52.264;6.154;2023-04-09T10:16:32;13.50;99.90
47022;DHT22;32779;52.264;6.154;2023-04-09T10:19:00;13.60;99.90
47022;DHT22;32779;52.264;6.154;2023-04-09T10:22:03;13.50;99.90
47022;DHT22;32779;52.264;6.154;2023-04-09T10:24:31;13.50;99.90
47022;DHT22;32779;52.264;6.154;2023-04-09T10:27:09;13.60;99.90
47022;DHT22;32779;52.264;6.154;2023-04-09T10:29:47;13.50;99.90
47022;DHT22;32779;52.264;6.154;2023-04-09T10:32:20;13.50;99.90
47022;DHT22;32779;52.264;6.154;2023-04-09T10:34:47;13.50;99.90
47022;DHT22;32779;52.264;6.154;2023-04-09T10:37:22;13.60;99.90
47022;DHT22;32779;52.264;6.154;2023-04-09T10:39:49;13.60;99.90
47022;DHT22;32779;52.264;6.154;2023-04-09T10:42:23;13.70;99.90
47022;DHT22;32779;52.264;6.154;2023-04-09T10:45:10;13.70;99.90
47022;DHT22;32779;52.264;6.154;2023-04-09T10:47:38;13.70;99.90
47022;DHT22;32779;52.264;6.154;2023-04-09T10:50:21;13.70;99.90
47022;DHT22;32779;52.264;6.154;2023-04-09T10:52:54;13.80;99.90
47022;DHT22;32779;52.264;6.154;2023-04-09T10:55:36;13.80;99.90
47022;DHT22;32779;52.264;6.154;2023-04-09T10:58:07;13.90;99.90
47022;DHT22;32779;52.264;6.154;2023-04-09T11:00:36;14.00;99.90
47022;DHT22;32779;52.264;6.154;2023-04-09T11:08:04;14.20;99.00
47022;DHT22;32779;52.264;6.154;2023-04-09T11:10:31;14.20;98.70
47022;DHT22;32779;52.264;6.154;2023-04-09T11:12:57;14.20;99.30
47022;DHT22;32779;52.264;6.154;2023-04-09T11:15:23;14.20;98.90
47022;DHT22;32779;52.264;6.154;2023-04-09T11:17:49;14.10;98.00
47022;DHT22;32779;52.264;6.154;2023-04-09T11:20:16;14.00;98.00
47022;DHT22;32779;52.264;6.154;2023-04-09T11:22:41;14.00;98.20
47022;DHT22;32779;52.264;6.154;2023-04-09T11:25:07;14.00;98.60
47022;DHT22;32779;52.264;6.154;2023-04-09T11:27:37;13.90;98.40
47022;DHT22;32779;52.264;6.154;2023-04-09T11:30:03;14.00;97.90
47022;DHT22;32779;52.264;6.154;2023-04-09T11:32:29;14.10;98.80
47022;DHT22;32779;52.264;6.154;2023-04-09T11:34:55;14.20;98.10
47022;DHT22;32779;52.264;6.154;2023-04-09T11:37:22;14.20;98.00
47022;DHT22;32779;52.264;6.154;2023-04-09T11:39:48;14.30;98.50
47022;DHT22;32779;52.264;6.154;2023-04-09T11:42:16;14.40;97.70
47022;DHT22;32779;52.264;6.154;2023-04-09T11:44:43;14.40;97.90
47022;DHT22;32779;52.264;6.154;2023-04-09T11:47:09;14.30;96.50
47022;DHT22;32779;52.264;6.154;2023-04-09T11:49:36;14.20;97.30
47022;DHT22;32779;52.264;6.154;2023-04-09T11:52:02;14.20;97.70
47022;DHT22;32779;52.264;6.154;2023-04-09T11:54:32;14.20;97.80
47022;DHT22;32779;52.264;6.154;2023-04-09T11:57:04;14.30;98.10
47022;DHT22;32779;52.264;6.154;2023-04-09T11:59:30;14.30;97.20
47022;DHT22;32779;52.264;6.154;2023-04-09T12:01:58;14.40;96.40
47022;DHT22;32779;52.264;6.154;2023-04-09T12:04:24;14.30;96.40
47022;DHT22;32779;52.264;6.154;2023-04-09T12:06:50;14.40;97.00
47022;DHT22;32779;52.264;6.154;2023-04-09T12:09:16;14.50;96.80
47022;DHT22;32779;52.264;6.154;2023-04-09T12:11:43;14.50;96.00
47022;DHT22;32779;52.264;6.154;2023-04-09T12:14:16;14.50;96.90
47022;DHT22;32779;52.264;6.154;2023-04-09T12:16:42;14.50;96.00
47022;DHT22;32779;52.264;6.154;2023-04-09T12:19:10;14.40;95.60
47022;DHT22;32779;52.264;6.154;2023-04-09T12:21:51;14.30;96.30
47022;DHT22;32779;52.264;6.154;2023-04-09T12:24:21;14.40;96.90
47022;DHT22;32779;52.264;6.154;2023-04-09T12:26:48;14.40;96.40
47022;DHT22;32779;52.264;6.154;2023-04-09T12:29:15;14.30;96.60
47022;DHT22;32779;52.264;6.154;2023-04-09T12:31:41;14.30;97.30
47022;DHT22;32779;52.264;6.154;2023-04-09T12:34:07;14.30;96.40
47022;DHT22;32779;52.264;6.154;2023-04-09T12:36:33;14.30;96.10
47022;DHT22;32779;52.264;6.154;2023-04-09T12:38:59;14.20;96.60
47022;DHT22;32779;52.264;6.154;2023-04-09T12:41:25;14.30;96.60
47022;DHT22;32779;52.264;6.154;2023-04-09T12:43:50;14.40;96.20
47022;DHT22;32779;52.264;6.154;2023-04-09T12:46:19;14.40;96.00
47022;DHT22;32779;52.264;6.154;2023-04-09T12:48:45;14.40;96.20
47022;DHT22;32779;52.264;6.154;2023-04-09T12:51:11;14.40;95.40
47022;DHT22;32779;52.264;6.154;2023-04-09T12:53:37;14.50;94.90
47022;DHT22;32779;52.264;6.154;2023-04-09T12:56:03;14.60;96.20
47022;DHT22;32779;52.264;6.154;2023-04-09T12:58:29;14.60;95.40
47022;DHT22;32779;52.264;6.154;2023-04-09T13:00:55;14.60;95.50
47022;DHT22;32779;52.264;6.154;2023-04-09T13:03:22;14.60;95.00
47022;DHT22;32779;52.264;6.154;2023-04-09T13:05:48;14.60;95.30
47022;DHT22;32779;52.264;6.154;2023-04-09T13:08:13;14.60;95.40
47022;DHT22;32779;52.264;6.154;2023-04-09T13:10:39;14.60;95.40
47022;DHT22;32779;52.264;6.154;2023-04-09T13:13:05;14.60;95.30
47022;DHT22;32779;52.264;6.154;2023-04-09T13:15:42;14.70;95.30
47022;DHT22;32779;52.264;6.154;2023-04-09T13:18:08;14.70;96.10
47022;DHT22;32779;52.264;6.154;2023-04-09T13:20:34;14.80;95.90
47022;DHT22;32779;52.264;6.154;2023-04-09T13:22:59;14.90;95.90
47022;DHT22;32779;52.264;6.154;2023-04-09T13:25:25;15.00;94.90
47022;DHT22;32779;52.264;6.154;2023-04-09T13:27:50;14.90;95.50
47022;DHT22;32779;52.264;6.154;2023-04-09T13:30:16;14.90;95.30
47022;DHT22;32779;52.264;6.154;2023-04-09T13:32:41;14.90;94.80
47022;DHT22;32779;52.264;6.154;2023-04-09T13:35:08;14.80;95.10
47022;DHT22;32779;52.264;6.154;2023-04-09T13:37:34;14.90;94.90
47022;DHT22;32779;52.264;6.154;2023-04-09T13:40:00;15.00;94.30
47022;DHT22;32779;52.264;6.154;2023-04-09T13:42:25;14.90;94.20
47022;DHT22;32779;52.264;6.154;2023-04-09T13:44:52;15.00;94.80
47022;DHT22;32779;52.264;6.154;2023-04-09T13:47:18;15.10;95.50
47022;DHT22;32779;52.264;6.154;2023-04-09T13:49:43;15.20;95.10
47022;DHT22;32779;52.264;6.154;2023-04-09T13:52:09;15.30;95.60
47022;DHT22;32779;52.264;6.154;2023-04-09T13:54:35;15.40;95.70
47022;DHT22;32779;52.264;6.154;2023-04-09T13:57:01;15.40;95.60
47022;DHT22;32779;52.264;6.154;2023-04-09T13:59:27;15.50;95.00
47022;DHT22;32779;52.264;6.154;2023-04-09T14:01:52;15.50;94.80
47022;DHT22;32779;52.264;6.154;2023-04-09T14:04:18;15.60;94.00
47022;DHT22;32779;52.264;6.154;2023-04-09T14:06:44;15.50;95.30
47022;DHT22;32779;52.264;6.154;2023-04-09T14:09:10;15.50;95.00
47022;DHT22;32779;52.264;6.154;2023-04-09T14:11:36;15.50;94.20
47022;DHT22;32779;52.264;6.154;2023-04-09T14:14:02;15.50;94.60
47022;DHT22;32779;52.264;6.154;2023-04-09T14:16:27;15.60;94.90
47022;DHT22;32779;52.264;6.154;2023-04-09T14:18:55;15.60;94.90
47022;DHT22;32779;52.264;6.154;2023-04-09T14:21:20;15.70;94.60
47022;DHT22;32779;52.264;6.154;2023-04-09T14:23:46;15.80;94.40
47022;DHT22;32779;52.264;6.154;2023-04-09T14:26:11;15.70;94.40
47022;DHT22;32779;52.264;6.154;2023-04-09T14:28:37;15.70;94.90
47022;DHT22;32779;52.264;6.154;2023-04-09T14:31:02;15.80;94.50
47022;DHT22;32779;52.264;6.154;2023-04-09T14:33:28;15.80;94.30
47022;DHT22;32779;52.264;6.154;2023-04-09T14:35:54;15.90;94.40
47022;DHT22;32779;52.264;6.154;2023-04-09T14:38:19;15.80;94.20
47022;DHT22;32779;52.264;6.154;2023-04-09T14:40:45;15.80;94.80
47022;DHT22;32779;52.264;6.154;2023-04-09T14:43:11;15.80;94.60
47022;DHT22;32779;52.264;6.154;2023-04-09T14:45:36;15.70;94.20
47022;DHT22;32779;52.264;6.154;2023-04-09T14:48:02;15.60;94.80
47022;DHT22;32779;52.264;6.154;2023-04-09T14:50:29;15.60;94.50
47022;DHT22;32779;52.264;6.154;2023-04-09T14:52:56;15.60;94.20
47022;DHT22;32779;52.264;6.154;2023-04-09T14:55:22;15.60;94.30
47022;DHT22;32779;52.264;6.154;2023-04-09T14:57:49;15.60;93.80
47022;DHT22;32779;52.264;6.154;2023-04-09T15:00:15;15.50;94.50
47022;DHT22;32779;52.264;6.154;2023-04-09T15:02:41;15.50;93.90
47022;DHT22;32779;52.264;6.154;2023-04-09T15:05:07;15.50;94.20
47022;DHT22;32779;52.264;6.154;2023-04-09T15:07:33;15.40;94.30
47022;DHT22;32779;52.264;6.154;2023-04-09T15:09:59;15.40;94.30
47022;DHT22;32779;52.264;6.154;2023-04-09T15:14:51;15.30;95.10
47022;DHT22;32779;52.264;6.154;2023-04-09T15:17:16;15.20;94.70
47022;DHT22;32779;52.264;6.154;2023-04-09T15:19:42;15.30;94.30
47022;DHT22;32779;52.264;6.154;2023-04-09T15:22:07;15.30;94.60
47022;DHT22;32779;52.264;6.154;2023-04-09T15:24:33;15.30;94.90
47022;DHT22;32779;52.264;6.154;2023-04-09T15:26:58;15.30;94.70
47022;DHT22;32779;52.264;6.154;2023-04-09T15:29:24;15.30;94.50
47022;DHT22;32779;52.264;6.154;2023-04-09T15:31:51;15.30;94.60
47022;DHT22;32779;52.264;6.154;2023-04-09T15:34:17;15.30;94.90
47022;DHT22;32779;52.264;6.154;2023-04-09T15:36:43;15.40;95.10
47022;DHT22;32779;52.264;6.154;2023-04-09T15:39:09;15.40;94.80
47022;DHT22;32779;52.264;6.154;2023-04-09T15:41:34;15.40;94.70
47022;DHT22;32779;52.264;6.154;2023-04-09T15:44:00;15.50;94.80
47022;DHT22;32779;52.264;6.154;2023-04-09T15:46:25;15.50;94.60
47022;DHT22;32779;52.264;6.154;2023-04-09T15:48:51;15.40;94.80
47022;DHT22;32779;52.264;6.154;2023-04-09T15:51:17;15.40;95.20
47022;DHT22;32779;52.264;6.154;2023-04-09T15:53:42;15.30;94.30
47022;DHT22;32779;52.264;6.154;2023-04-09T15:56:10;15.20;94.30
47022;DHT22;32779;52.264;6.154;2023-04-09T15:58:36;15.10;94.30